Time;durP1;ratioP1;P1;durP2;ratioP2;P2;SDS_P1;SDS_P2;PMS_P1;PMS_P2;Temp;Humidity;BMP_temperature;BMP_pressure;BME280_temperature;BME280_humidity;BME280_pressure;Samples;Min_cycle;Max_cycle;Signal;HPM_P1;HPM_P2
2022/01/07 00:01:10;;;;;;;11.63;4.03;;;4.50;83.60;;;;;;5127780;27;20048;-71
2022/01/07 00:03:36;;;;;;;12.25;5.07;;;4.40;83.60;;;;;;5125681;27;20464;-71
2022/01/07 00:06:02;;;;;;;16.38;5.32;;;4.30;83.90;;;;;;5131210;27;20519;-71
2022/01/07 00:08:29;;;;;;;15.02;5.03;;;4.40;84.40;;;;;;5131458;27;20055;-71
2022/01/07 00:10:55;;;;;;;14.60;4.00;;;4.30;84.10;;;;;;5120525;27;20519;-71
2022/01/07 00:13:22;;;;;;;12.43;4.05;;;4.30;84.20;;;;;;5131587;27;20123;-71
2022/01/07 00:15:48;;;;;;;12.50;3.42;;;4.30;84.60;;;;;;5113489;27;20126;-71
2022/01/07 00:18:14;;;;;;;11.35;4.20;;;4.20;84.90;;;;;;5131834;27;20487;-71
2022/01/07 00:20:40;;;;;;;16.60;4.38;;;4.30;85.00;;;;;;5089888;27;20035;-71
2022/01/07 00:23:06;;;;;;;13.68;4.10;;;4.20;85.50;;;;;;5129899;27;20058;-71
2022/01/07 00:25:31;;;;;;;10.43;3.88;;;4.20;85.60;;;;;;5127114;27;20043;-71
2022/01/07 00:27:58;;;;;;;15.85;4.57;;;4.10;85.70;;;;;;5130351;27;20682;-71
2022/01/07 00:30:24;;;;;;;9.50;3.88;;;4.20;85.80;;;;;;5130041;27;20042;-71
2022/01/07 00:32:52;;;;;;;14.02;4.53;;;4.20;85.80;;;;;;5130279;27;20111;-71
2022/01/07 00:35:19;;;;;;;16.58;4.15;;;4.20;86.10;;;;;;5112403;27;20050;-71
2022/01/07 00:37:46;;;;;;;13.35;4.47;;;4.20;86.10;;;;;;5130228;27;20053;-71
2022/01/07 00:40:17;;;;;;;12.02;4.10;;;4.20;86.10;;;;;;5128893;27;20047;-71
2022/01/07 00:42:45;;;;;;;9.68;4.18;;;4.20;86.10;;;;;;5112130;27;20069;-71
2022/01/07 00:45:11;;;;;;;15.00;3.67;;;4.20;86.00;;;;;;5129992;27;20050;-70
2022/01/07 00:47:36;;;;;;;14.13;4.30;;;4.30;85.80;;;;;;5130904;27;20039;-71
2022/01/07 00:50:04;;;;;;;8.98;3.97;;;4.20;85.80;;;;;;5129940;27;20911;-71
2022/01/07 00:52:30;;;;;;;14.68;6.40;;;4.30;85.80;;;;;;5130343;27;20099;-71
2022/01/07 00:54:56;;;;;;;12.05;4.15;;;4.20;85.70;;;;;;5111408;27;20484;-71
2022/01/07 00:57:21;;;;;;;12.00;3.50;;;4.20;85.80;;;;;;5130027;27;20043;-71
2022/01/07 00:59:47;;;;;;;9.55;4.25;;;4.20;85.80;;;;;;5124780;27;20047;-71
2022/01/07 01:02:14;;;;;;;8.85;3.88;;;4.20;85.70;;;;;;5127576;27;20054;-71
2022/01/07 01:04:42;;;;;;;16.13;4.45;;;4.30;86.00;;;;;;5111742;27;20047;-71
2022/01/07 01:07:07;;;;;;;9.63;4.10;;;4.20;86.30;;;;;;5127026;27;20389;-71
2022/01/07 01:09:33;;;;;;;13.75;4.55;;;4.20;86.40;;;;;;5130559;27;20050;-71
2022/01/07 01:12:00;;;;;;;12.70;5.40;;;4.10;86.60;;;;;;5129342;27;20043;-71
2022/01/07 01:14:25;;;;;;;12.30;5.32;;;4.20;86.60;;;;;;5125984;27;20043;-71
2022/01/07 01:16:52;;;;;;;13.43;4.93;;;4.20;86.60;;;;;;5128886;27;20419;-71
2022/01/07 01:19:18;;;;;;;11.65;5.15;;;4.20;86.70;;;;;;5104872;27;20049;-71
2022/01/07 01:21:44;;;;;;;11.57;5.45;;;4.20;87.00;;;;;;5129434;27;20082;-71
2022/01/07 01:24:10;;;;;;;13.80;5.57;;;4.20;87.00;;;;;;5129512;27;20050;-71
2022/01/07 01:26:35;;;;;;;13.32;5.57;;;4.10;87.30;;;;;;5110624;27;20407;-71
2022/01/07 01:29:01;;;;;;;10.57;5.28;;;4.10;87.30;;;;;;5111034;27;20047;-71
2022/01/07 01:31:30;;;;;;;13.68;5.65;;;4.10;87.20;;;;;;5128735;27;20058;-71
2022/01/07 01:33:55;;;;;;;9.52;5.63;;;4.20;87.00;;;;;;5111767;27;20467;-71
2022/01/07 01:36:21;;;;;;;11.75;6.35;;;4.20;87.10;;;;;;5130038;27;20047;-71
2022/01/07 01:38:46;;;;;;;10.07;4.75;;;4.20;87.10;;;;;;5130148;27;20039;-71
2022/01/07 01:41:13;;;;;;;8.05;4.50;;;4.20;87.10;;;;;;5129736;27;20411;-71
2022/01/07 01:43:38;;;;;;;14.20;5.78;;;4.20;87.30;;;;;;5129336;27;20091;-71
2022/01/07 01:46:04;;;;;;;9.20;4.78;;;4.10;87.40;;;;;;5129759;27;20130;-71
2022/01/07 01:48:30;;;;;;;10.25;5.50;;;4.20;87.40;;;;;;5129508;27;20047;-71
2022/01/07 01:50:56;;;;;;;12.00;5.30;;;4.20;87.50;;;;;;5129627;27;20046;-71
2022/01/07 01:53:22;;;;;;;11.10;5.47;;;4.10;87.40;;;;;;5129818;27;20039;-71
2022/01/07 01:55:48;;;;;;;9.73;5.32;;;4.10;87.30;;;;;;5111792;27;20058;-70
2022/01/07 01:58:14;;;;;;;12.48;5.45;;;4.20;87.20;;;;;;5111602;27;20118;-71
2022/01/07 02:00:39;;;;;;;11.30;5.25;;;4.10;87.20;;;;;;5110771;27;20070;-71
2022/01/07 02:03:05;;;;;;;8.35;4.55;;;4.20;87.40;;;;;;5129230;27;20187;-71
2022/01/07 02:05:32;;;;;;;12.30;5.18;;;4.10;87.40;;;;;;5128831;27;20409;-71
2022/01/07 02:07:58;;;;;;;13.63;5.32;;;4.10;87.60;;;;;;5129354;27;20491;-70
2022/01/07 02:10:24;;;;;;;9.23;4.70;;;4.10;87.80;;;;;;5129916;27;20061;-70
2022/01/07 02:12:50;;;;;;;7.13;4.47;;;4.00;87.90;;;;;;5128518;27;20062;-70
2022/01/07 02:15:16;;;;;;;9.07;4.95;;;4.00;88.00;;;;;;5129247;27;20629;-71
2022/01/07 02:17:44;;;;;;;7.75;4.65;;;3.90;88.10;;;;;;5110374;28;20109;-71
2022/01/07 02:20:12;;;;;;;7.15;4.70;;;3.80;88.00;;;;;;5129900;28;20047;-71
2022/01/07 02:22:38;;;;;;;5.63;3.83;;;3.80;88.20;;;;;;5111323;28;20069;-71
2022/01/07 02:25:04;;;;;;;7.28;4.65;;;3.80;88.10;;;;;;5111169;28;20048;-71
2022/01/07 02:27:34;;;;;;;10.40;4.00;;;3.70;88.00;;;;;;5128930;28;20047;-71
2022/01/07 02:30:00;;;;;;;11.43;5.00;;;3.70;88.00;;;;;;5128625;27;20043;-70
2022/01/07 02:32:26;;;;;;;8.68;4.63;;;3.60;88.60;;;;;;5128368;28;20049;-70
2022/01/07 02:34:51;;;;;;;9.90;4.82;;;3.60;88.80;;;;;;5129649;27;20035;-70
2022/01/07 02:37:17;;;;;;;8.15;4.72;;;3.70;88.70;;;;;;5129168;28;20050;-70
2022/01/07 02:39:44;;;;;;;13.38;5.05;;;3.60;88.80;;;;;;5129040;27;20129;-70
2022/01/07 02:42:09;;;;;;;12.48;5.57;;;3.70;89.00;;;;;;5128949;28;20491;-71
2022/01/07 02:44:35;;;;;;;7.47;4.68;;;3.70;88.90;;;;;;5111032;28;20104;-70
2022/01/07 02:47:00;;;;;;;13.00;6.82;;;3.70;89.10;;;;;;5128407;27;20035;-70
2022/01/07 02:49:26;;;;;;;11.25;4.88;;;3.70;89.20;;;;;;5111186;28;20122;-70
2022/01/07 02:51:52;;;;;;;12.57;5.28;;;3.70;89.30;;;;;;5110709;28;20075;-70
2022/01/07 02:54:18;;;;;;;10.18;5.00;;;3.70;89.30;;;;;;5094130;28;20045;-70
2022/01/07 02:56:44;;;;;;;10.65;5.50;;;3.60;89.30;;;;;;5128843;28;20130;-70
2022/01/07 02:59:10;;;;;;;15.90;7.63;;;3.70;89.30;;;;;;5093748;27;20092;-70
2022/01/07 03:01:37;;;;;;;12.80;5.55;;;3.70;89.30;;;;;;5127299;28;20505;-70
2022/01/07 03:04:04;;;;;;;13.90;5.15;;;3.70;89.50;;;;;;5128924;28;20061;-70
2022/01/07 03:06:30;;;;;;;12.30;5.35;;;3.70;89.50;;;;;;5128552;28;20624;-70
2022/01/07 03:08:56;;;;;;;11.55;5.72;;;3.70;89.50;;;;;;5109202;28;20051;-69
2022/01/07 03:11:21;;;;;;;14.75;5.88;;;3.70;89.60;;;;;;5122612;27;20633;-70
2022/01/07 03:13:47;;;;;;;10.98;6.32;;;3.70;89.60;;;;;;5129175;28;20092;-69
2022/01/07 03:16:13;;;;;;;7.72;5.88;;;3.80;89.60;;;;;;5109894;27;20488;-70
2022/01/07 03:18:39;;;;;;;10.60;5.88;;;3.80;89.40;;;;;;5115040;27;20058;-70
2022/01/07 03:21:04;;;;;;;8.85;5.43;;;3.90;89.40;;;;;;5128798;27;20039;-70
2022/01/07 03:23:31;;;;;;;9.27;5.55;;;3.90;89.30;;;;;;5114844;27;20642;-69
2022/01/07 03:25:57;;;;;;;9.85;5.88;;;4.00;89.10;;;;;;5132259;27;20035;-69
2022/01/07 03:28:24;;;;;;;8.60;5.75;;;4.00;89.30;;;;;;5133118;27;20054;-69
2022/01/07 03:30:50;;;;;;;12.07;6.78;;;3.90;89.50;;;;;;5132024;27;20047;-69
2022/01/07 03:33:16;;;;;;;9.25;5.75;;;3.90;89.50;;;;;;5132398;27;20488;-70
2022/01/07 03:35:42;;;;;;;12.98;6.30;;;4.00;89.40;;;;;;5113512;27;20046;-70
2022/01/07 03:38:08;;;;;;;8.55;5.20;;;3.90;89.50;;;;;;5131968;27;20045;-70
2022/01/07 03:40:35;;;;;;;11.10;5.75;;;4.00;89.50;;;;;;5131380;27;20549;-70
2022/01/07 03:43:01;;;;;;;9.02;5.35;;;4.00;89.50;;;;;;5132418;27;20051;-70
2022/01/07 03:45:27;;;;;;;11.95;6.15;;;4.00;89.40;;;;;;5130838;27;20123;-70
2022/01/07 03:47:53;;;;;;;9.57;5.97;;;4.10;89.40;;;;;;5131687;27;20043;-70
2022/01/07 03:50:23;;;;;;;11.48;5.60;;;4.00;89.40;;;;;;5111042;27;20039;-69
2022/01/07 03:52:49;;;;;;;6.38;5.70;;;4.00;89.40;;;;;;5131255;27;20174;-69
2022/01/07 03:55:18;;;;;;;7.15;5.38;;;4.00;89.50;;;;;;5130108;27;20438;-70
2022/01/07 03:57:44;;;;;;;6.60;5.40;;;4.00;89.60;;;;;;5131857;27;20035;-71
2022/01/07 04:00:13;;;;;;;8.55;5.85;;;4.00;89.50;;;;;;5131855;27;20054;-71
2022/01/07 04:02:39;;;;;;;7.45;5.43;;;4.00;89.50;;;;;;5130498;27;20047;-71
2022/01/07 04:05:05;;;;;;;9.18;6.30;;;4.10;89.40;;;;;;5130937;27;20059;-71
2022/01/07 04:07:31;;;;;;;11.70;7.22;;;4.00;89.40;;;;;;5131139;27;20078;-71
2022/01/07 04:09:58;;;;;;;10.90;6.90;;;4.10;89.40;;;;;;5125288;27;20800;-71
2022/01/07 04:12:24;;;;;;;10.45;6.38;;;4.10;89.30;;;;;;5118565;27;20181;-72
2022/01/07 04:15:00;;;;;;;12.13;6.90;;;4.00;89.50;;;;;;5131267;27;20415;-72
2022/01/07 04:17:25;;;;;;;9.27;5.82;;;4.10;89.40;;;;;;5113344;27;20053;-71
2022/01/07 04:19:51;;;;;;;13.43;7.60;;;4.10;89.30;;;;;;5132365;27;20499;-71
2022/01/07 04:22:17;;;;;;;12.23;6.70;;;4.10;89.20;;;;;;5113489;27;20071;-71
2022/01/07 04:24:42;;;;;;;10.77;6.88;;;4.10;89.30;;;;;;5131820;27;20035;-71
2022/01/07 04:27:08;;;;;;;9.75;6.47;;;4.10;89.40;;;;;;5130815;27;20047;-71
2022/01/07 04:29:33;;;;;;;11.23;7.50;;;4.10;89.30;;;;;;5131480;27;20031;-71
2022/01/07 04:31:59;;;;;;;11.25;6.60;;;4.20;89.10;;;;;;5130824;27;20376;-71
2022/01/07 04:34:24;;;;;;;12.52;7.00;;;4.10;89.40;;;;;;5131792;27;20082;-71
2022/01/07 04:36:50;;;;;;;9.98;6.60;;;4.20;89.30;;;;;;5111453;27;20039;-71
2022/01/07 04:39:16;;;;;;;14.38;6.68;;;4.20;89.40;;;;;;5129865;27;20039;-70
2022/01/07 04:41:41;;;;;;;9.10;6.72;;;4.20;89.30;;;;;;5128583;27;20121;-69
2022/01/07 04:44:07;;;;;;;11.25;6.90;;;4.20;89.40;;;;;;5129927;27;20507;-71
2022/01/07 04:46:32;;;;;;;11.40;6.80;;;4.20;89.70;;;;;;5130891;27;20047;-70
2022/01/07 04:48:58;;;;;;;12.18;6.75;;;4.20;89.60;;;;;;5112790;27;20041;-70
2022/01/07 04:51:24;;;;;;;13.30;7.10;;;4.10;89.50;;;;;;5130145;27;20043;-70
2022/01/07 04:53:49;;;;;;;9.40;6.32;;;4.20;89.50;;;;;;5096131;27;20075;-70
2022/01/07 04:56:15;;;;;;;9.57;6.45;;;4.20;89.50;;;;;;5112319;27;20071;-70
2022/01/07 04:58:40;;;;;;;9.93;6.97;;;4.20;89.60;;;;;;5095687;27;20043;-70
2022/01/07 05:01:06;;;;;;;16.15;8.23;;;4.30;89.60;;;;;;5110625;27;20059;-68
2022/01/07 05:03:32;;;;;;;10.10;6.18;;;4.30;89.50;;;;;;5105667;28;20075;-70
2022/01/07 05:06:12;;;;;;;9.82;6.45;;;4.30;89.50;;;;;;5094928;27;20568;-70
2022/01/07 05:08:38;;;;;;;11.88;7.13;;;4.30;89.60;;;;;;5128514;27;20054;-69
2022/01/07 05:11:04;;;;;;;10.57;6.00;;;4.20;89.70;;;;;;5129644;27;20043;-70
2022/01/07 05:13:30;;;;;;;13.90;7.47;;;4.20;89.90;;;;;;5110896;27;20039;-70
2022/01/07 05:15:55;;;;;;;8.75;6.50;;;4.20;89.70;;;;;;5130261;27;20035;-70
2022/01/07 05:18:21;;;;;;;12.13;7.00;;;4.30;89.60;;;;;;5129646;27;20407;-70
2022/01/07 05:20:48;;;;;;;10.00;6.93;;;4.30;89.60;;;;;;5129991;27;20058;-70
2022/01/07 05:23:13;;;;;;;15.57;7.95;;;4.30;89.60;;;;;;5130660;27;20050;-71
2022/01/07 05:25:39;;;;;;;18.15;8.13;;;4.30;89.50;;;;;;5130159;27;20511;-70
2022/01/07 05:28:05;;;;;;;13.43;8.43;;;4.30;89.90;;;;;;5130484;27;20102;-70
2022/01/07 05:30:31;;;;;;;15.75;7.95;;;4.30;89.80;;;;;;5129202;27;20091;-70
2022/01/07 05:32:57;;;;;;;14.40;8.05;;;4.30;89.80;;;;;;5121980;27;20437;-70
2022/01/07 05:35:25;;;;;;;17.35;7.95;;;4.30;89.80;;;;;;5101223;27;20047;-71
2022/01/07 05:37:52;;;;;;;16.25;9.43;;;4.30;89.90;;;;;;5106722;28;20054;-70
2022/01/07 05:40:18;;;;;;;12.60;8.63;;;4.40;90.00;;;;;;5105886;27;20054;-71
2022/01/07 05:42:43;;;;;;;13.43;8.13;;;4.40;89.90;;;;;;5129757;27;20407;-70
2022/01/07 05:45:09;;;;;;;13.63;8.13;;;4.40;89.90;;;;;;5128357;27;20138;-70
2022/01/07 05:47:35;;;;;;;13.63;8.35;;;4.50;89.90;;;;;;5130262;27;20055;-70
2022/01/07 05:50:01;;;;;;;18.48;8.68;;;4.40;90.10;;;;;;5129532;27;20495;-70
2022/01/07 05:52:26;;;;;;;12.77;8.23;;;4.50;90.20;;;;;;5111357;27;20047;-71
2022/01/07 05:54:52;;;;;;;10.77;7.03;;;4.50;90.10;;;;;;5129515;27;20043;-71
2022/01/07 05:57:18;;;;;;;11.27;7.45;;;4.50;90.00;;;;;;5110194;27;20041;-71
2022/01/07 05:59:43;;;;;;;11.65;7.55;;;4.50;90.00;;;;;;5120391;27;20183;-70
2022/01/07 06:02:09;;;;;;;10.32;7.55;;;4.50;90.00;;;;;;5110077;27;20122;-71
2022/01/07 06:04:35;;;;;;;13.20;7.68;;;4.60;90.00;;;;;;5128474;27;20064;-71
2022/01/07 06:07:02;;;;;;;9.85;7.30;;;4.60;90.20;;;;;;5129643;27;20101;-71
2022/01/07 06:09:27;;;;;;;9.90;7.57;;;4.60;90.20;;;;;;5111269;27;20050;-71
2022/01/07 06:11:53;;;;;;;11.85;7.20;;;4.60;90.10;;;;;;5125447;27;20053;-71
2022/01/07 06:14:18;;;;;;;17.00;8.27;;;4.60;90.20;;;;;;5110624;28;20488;-71
2022/01/07 06:16:44;;;;;;;14.18;8.18;;;4.60;90.10;;;;;;5129116;27;20039;-71
2022/01/07 06:19:10;;;;;;;11.75;7.13;;;4.60;90.00;;;;;;5093515;28;20043;-71
2022/01/07 06:21:35;;;;;;;10.75;7.63;;;4.60;90.10;;;;;;5110391;28;20100;-71
2022/01/07 06:24:01;;;;;;;15.07;7.82;;;4.60;90.20;;;;;;5110658;28;20682;-71
2022/01/07 06:26:27;;;;;;;10.55;8.15;;;4.70;90.20;;;;;;5128774;27;20042;-71
2022/01/07 06:28:52;;;;;;;12.88;7.20;;;4.60;90.20;;;;;;5109660;28;20031;-71
2022/01/07 06:31:18;;;;;;;10.45;7.57;;;4.60;90.20;;;;;;5110156;28;20043;-71
2022/01/07 06:33:44;;;;;;;13.55;7.70;;;4.70;90.20;;;;;;5110476;28;20043;-71
2022/01/07 06:36:09;;;;;;;12.35;8.18;;;4.70;90.20;;;;;;5127501;28;20091;-71
2022/01/07 06:38:35;;;;;;;11.40;7.97;;;4.70;90.40;;;;;;5109654;28;20518;-71
2022/01/07 06:41:01;;;;;;;11.60;7.70;;;4.70;90.60;;;;;;5126953;28;20798;-69
2022/01/07 06:43:27;;;;;;;13.35;7.97;;;4.80;90.40;;;;;;5092930;28;20043;-71
2022/01/07 06:45:52;;;;;;;12.07;8.40;;;4.70;90.30;;;;;;5129203;27;20046;-70
2022/01/07 06:48:18;;;;;;;12.90;8.77;;;4.70;90.40;;;;;;5109720;27;20442;-70
2022/01/07 06:50:45;;;;;;;13.23;8.25;;;4.70;90.50;;;;;;5127103;27;20047;-70
2022/01/07 06:53:10;;;;;;;11.60;8.15;;;4.60;90.40;;;;;;5096887;27;20050;-70
2022/01/07 06:55:36;;;;;;;20.45;10.90;;;4.60;90.60;;;;;;5132052;27;20051;-70
2022/01/07 06:58:02;;;;;;;14.23;8.40;;;4.60;90.80;;;;;;5132475;27;20039;-70
2022/01/07 07:00:27;;;;;;;15.70;9.25;;;4.60;90.70;;;;;;5132145;27;20133;-70
2022/01/07 07:02:53;;;;;;;12.32;8.63;;;4.60;90.60;;;;;;5133131;27;20077;-70
2022/01/07 07:05:18;;;;;;;17.08;11.38;;;4.60;90.60;;;;;;5132477;27;20150;-70
2022/01/07 07:07:44;;;;;;;13.30;8.50;;;4.70;90.40;;;;;;5114511;27;20050;-70
2022/01/07 07:10:10;;;;;;;15.52;10.57;;;4.60;90.30;;;;;;5132598;27;20039;-70
2022/01/07 07:12:35;;;;;;;16.70;9.15;;;4.70;90.30;;;;;;5132850;27;20114;-70
2022/01/07 07:15:01;;;;;;;13.65;8.27;;;4.60;90.40;;;;;;5131492;27;20523;-70
2022/01/07 07:17:27;;;;;;;16.38;9.38;;;4.60;90.70;;;;;;5114294;27;20043;-70
2022/01/07 07:19:52;;;;;;;14.55;9.70;;;4.60;90.70;;;;;;5131852;27;20461;-70
2022/01/07 07:22:18;;;;;;;12.27;9.50;;;4.70;90.80;;;;;;5130502;27;20448;-68
2022/01/07 07:24:44;;;;;;;12.52;10.02;;;4.70;91.00;;;;;;5112256;27;20098;-71
2022/01/07 07:27:09;;;;;;;22.58;9.32;;;4.90;91.20;;;;;;5131451;27;20051;-72
2022/01/07 07:29:35;;;;;;;16.30;9.35;;;4.90;90.80;;;;;;5132648;27;20522;-72
2022/01/07 07:32:05;;;;;;;15.75;8.88;;;4.90;90.60;;;;;;5097074;27;20131;-72
2022/01/07 07:34:56;;;;;;;15.98;10.73;;;4.90;90.70;;;;;;5130926;27;20055;-72
2022/01/07 07:37:17;;;;;;;18.77;9.77;;;4.80;90.80;;;;;;5131757;27;20118;-72
2022/01/07 07:39:42;;;;;;;12.60;9.93;;;4.80;90.70;;;;;;5132067;27;20051;-72
2022/01/07 07:42:08;;;;;;;22.15;9.50;;;4.70;91.00;;;;;;5114163;27;20054;-72
2022/01/07 07:44:34;;;;;;;20.33;9.75;;;4.70;91.00;;;;;;5131659;27;20496;-72
2022/01/07 07:47:00;;;;;;;24.70;9.75;;;4.70;91.00;;;;;;5131817;27;20082;-72
2022/01/07 07:49:25;;;;;;;14.77;9.27;;;4.70;91.00;;;;;;5113224;27;20042;-72
2022/01/07 07:51:52;;;;;;;24.77;11.00;;;4.70;91.10;;;;;;5095615;27;20051;-72
2022/01/07 07:54:18;;;;;;;19.20;10.20;;;4.70;91.10;;;;;;5111844;27;20039;-72
2022/01/07 07:56:43;;;;;;;18.17;9.73;;;4.70;91.30;;;;;;5131859;27;20043;-72
2022/01/07 07:59:09;;;;;;;16.20;9.93;;;4.70;91.30;;;;;;5132011;27;20396;-72
2022/01/07 08:01:36;;;;;;;15.27;9.80;;;4.70;91.20;;;;;;5131345;27;20575;-72
2022/01/07 08:04:01;;;;;;;16.85;9.25;;;4.70;91.30;;;;;;5112461;27;20089;-72
2022/01/07 08:06:27;;;;;;;21.15;9.73;;;4.80;91.20;;;;;;5131134;27;20499;-72
2022/01/07 08:08:54;;;;;;;19.85;10.38;;;4.70;91.20;;;;;;5112863;27;20129;-72
2022/01/07 08:11:22;;;;;;;15.88;9.98;;;4.70;91.20;;;;;;5096279;27;20452;-72
2022/01/07 08:16:33;;;;;;;18.08;9.90;;;4.80;91.30;;;;;;5131147;27;20062;-72
2022/01/07 08:18:59;;;;;;;24.13;9.88;;;4.80;91.40;;;;;;5130966;27;20046;-72
2022/01/07 08:21:27;;;;;;;18.10;10.32;;;4.80;91.40;;;;;;5131193;27;20047;-72
2022/01/07 08:23:54;;;;;;;18.00;10.18;;;4.80;91.30;;;;;;5130851;27;20900;-72
2022/01/07 08:26:21;;;;;;;18.45;9.85;;;4.80;91.30;;;;;;5093203;28;20392;-72
2022/01/07 08:28:54;;;;;;;21.02;10.40;;;4.80;91.20;;;;;;5129923;27;20054;-72
2022/01/07 08:36:36;;;;;;;19.33;10.73;;;4.90;91.60;;;;;;5131273;27;20115;-72
2022/01/07 08:39:06;;;;;;;18.75;11.30;;;4.90;91.60;;;;;;5113436;27;20039;-72
2022/01/07 08:41:32;;;;;;;19.90;11.57;;;4.90;91.60;;;;;;5112266;27;20039;-72
2022/01/07 08:43:58;;;;;;;24.98;12.30;;;4.90;91.50;;;;;;5131540;27;20047;-72
2022/01/07 08:46:24;;;;;;;22.17;12.43;;;4.90;91.50;;;;;;5111310;27;20051;-72
2022/01/07 08:48:50;;;;;;;22.83;11.65;;;4.90;91.70;;;;;;5112913;27;20384;-72
2022/01/07 08:51:16;;;;;;;24.50;12.00;;;4.90;91.70;;;;;;5112223;27;20054;-72
2022/01/07 08:53:41;;;;;;;17.27;10.75;;;4.90;91.70;;;;;;5131374;27;20035;-72
2022/01/07 08:56:08;;;;;;;23.30;12.65;;;4.90;91.60;;;;;;5112380;27;20035;-72
2022/01/07 08:58:34;;;;;;;20.15;11.45;;;4.90;91.70;;;;;;5113127;27;20408;-74
2022/01/07 09:01:00;;;;;;;21.90;11.95;;;4.90;91.70;;;;;;5096719;27;20054;-72
2022/01/07 09:03:26;;;;;;;30.20;12.88;;;4.90;91.70;;;;;;5112617;27;20050;-72
2022/01/07 09:05:52;;;;;;;23.50;13.02;;;4.90;91.70;;;;;;5112717;27;20055;-72
2022/01/07 09:08:18;;;;;;;22.98;12.10;;;5.00;91.70;;;;;;5113019;27;20043;-72
2022/01/07 09:10:44;;;;;;;28.67;14.30;;;5.00;91.90;;;;;;5130296;27;20583;-72
2022/01/07 09:13:10;;;;;;;26.75;12.48;;;5.00;91.80;;;;;;5111940;27;20023;-72
2022/01/07 09:15:36;;;;;;;18.83;8.50;;;5.10;91.80;;;;;;5112311;27;20494;-72
2022/01/07 09:18:09;;;;;;;15.57;8.02;;;5.10;91.40;;;;;;5112555;27;20054;-72
2022/01/07 09:20:39;;;;;;;19.15;7.60;;;5.00;90.90;;;;;;5129893;27;20046;-72
2022/01/07 09:23:06;;;;;;;16.77;5.18;;;5.00;90.10;;;;;;5111389;27;20514;-72
2022/01/07 09:25:32;;;;;;;21.15;6.78;;;5.10;90.20;;;;;;5130232;27;20062;-72
2022/01/07 09:27:58;;;;;;;16.98;5.05;;;5.10;89.80;;;;;;5111762;27;20039;-73
2022/01/07 09:30:23;;;;;;;17.15;5.20;;;5.10;89.00;;;;;;5130756;27;20043;-72
2022/01/07 09:32:49;;;;;;;21.50;7.03;;;5.10;89.10;;;;;;5111315;27;20484;-72
2022/01/07 09:35:16;;;;;;;19.45;8.30;;;5.10;89.10;;;;;;5111185;27;20046;-72
2022/01/07 09:37:42;;;;;;;16.92;8.57;;;5.20;89.40;;;;;;5094765;27;20085;-72
2022/01/07 09:40:09;;;;;;;16.23;8.82;;;5.20;89.60;;;;;;5111857;27;20533;-72
2022/01/07 09:42:35;;;;;;;19.52;10.55;;;5.20;89.70;;;;;;5103485;28;20047;-71
2022/01/07 09:45:00;;;;;;;15.82;8.65;;;5.30;89.90;;;;;;5102700;27;20035;-72
2022/01/07 09:47:27;;;;;;;14.93;7.53;;;5.30;89.80;;;;;;5111434;27;20039;-74
2022/01/07 09:49:53;;;;;;;15.10;7.18;;;5.40;89.80;;;;;;5111739;27;20510;-71
2022/01/07 09:52:18;;;;;;;13.10;4.97;;;5.40;89.70;;;;;;5094607;27;20039;-71
2022/01/07 09:54:46;;;;;;;10.02;4.03;;;5.40;89.20;;;;;;5111955;27;20047;-72
2022/01/07 09:57:11;;;;;;;8.07;4.07;;;5.40;88.90;;;;;;5111258;27;20043;-72
2022/01/07 09:59:37;;;;;;;10.40;3.95;;;5.40;88.80;;;;;;5130472;27;20114;-72
2022/01/07 10:02:05;;;;;;;8.90;3.70;;;5.50;88.40;;;;;;5129288;27;20528;-76
2022/01/07 10:04:33;;;;;;;9.90;3.65;;;5.40;88.50;;;;;;5108205;27;20561;-75
2022/01/07 10:07:26;;;;;;;5.82;3.13;;;5.50;88.60;;;;;;5108519;27;20047;-72
2022/01/07 10:10:03;;;;;;;9.32;3.80;;;5.50;88.50;;;;;;5104003;28;20051;-75
2022/01/07 10:12:49;;;;;;;11.15;4.40;;;5.40;88.20;;;;;;5110184;27;20085;-72
2022/01/07 10:15:16;;;;;;;8.40;4.38;;;5.30;88.30;;;;;;5130350;27;20054;-74
2022/01/07 10:18:03;;;;;;;11.45;5.35;;;5.30;88.50;;;;;;5111206;27;20499;-74
2022/01/07 10:20:37;;;;;;;14.05;5.35;;;5.40;88.60;;;;;;5107090;28;20458;-74
2022/01/07 10:23:25;;;;;;;10.45;5.40;;;5.40;88.60;;;;;;5094489;28;20050;-74
2022/01/07 10:25:55;;;;;;;12.15;5.90;;;5.50;88.70;;;;;;5110825;27;20491;-74
2022/01/07 10:28:27;;;;;;;13.95;5.97;;;5.60;88.50;;;;;;5124349;28;20041;-74
2022/01/07 10:31:00;;;;;;;10.90;5.88;;;5.60;88.40;;;;;;5129766;27;20495;-71
2022/01/07 10:33:44;;;;;;;13.73;6.53;;;5.60;88.40;;;;;;5093481;28;20043;-74
2022/01/07 10:36:09;;;;;;;16.00;7.22;;;5.60;88.40;;;;;;5111421;28;20055;-74
2022/01/07 10:38:46;;;;;;;15.73;5.55;;;5.60;88.50;;;;;;5111042;28;20399;-74
2022/01/07 10:41:13;;;;;;;13.23;5.20;;;5.60;88.50;;;;;;5111512;28;20069;-75
2022/01/07 10:43:39;;;;;;;11.93;4.68;;;5.60;88.50;;;;;;5110424;28;20090;-74
2022/01/07 10:46:11;;;;;;;13.20;5.60;;;5.70;88.50;;;;;;5110056;28;20377;-74
2022/01/07 10:48:55;;;;;;;11.40;4.38;;;5.80;88.40;;;;;;5125884;27;20039;-74
2022/01/07 10:51:32;;;;;;;16.08;5.32;;;5.80;88.30;;;;;;5107096;28;20066;-74
2022/01/07 10:54:05;;;;;;;15.07;5.38;;;5.80;88.30;;;;;;5125884;28;20546;-74
2022/01/07 10:56:54;;;;;;;14.57;4.90;;;5.80;87.70;;;;;;5103011;28;20054;-74
2022/01/07 10:59:20;;;;;;;19.23;5.88;;;5.80;88.10;;;;;;5122302;27;20053;-74
2022/01/07 11:01:48;;;;;;;13.57;7.57;;;5.90;88.10;;;;;;5110135;28;20035;-74
2022/01/07 11:04:18;;;;;;;21.35;8.25;;;5.90;88.20;;;;;;5110668;28;20043;-74
2022/01/07 11:06:45;;;;;;;16.55;9.77;;;5.90;88.40;;;;;;5111546;28;20047;-73
2022/01/07 11:09:12;;;;;;;24.45;8.80;;;5.90;88.40;;;;;;5098383;28;20495;-74
2022/01/07 11:11:53;;;;;;;22.45;9.52;;;6.00;88.30;;;;;;5102166;28;20047;-75
2022/01/07 11:14:28;;;;;;;21.60;8.52;;;6.00;88.40;;;;;;5090987;28;20043;-74
2022/01/07 11:16:57;;;;;;;19.88;7.57;;;6.00;88.60;;;;;;5099271;28;20035;-73
2022/01/07 11:19:28;;;;;;;16.35;6.18;;;6.00;88.40;;;;;;5109852;28;20500;-73
2022/01/07 11:21:55;;;;;;;13.18;6.05;;;6.10;88.20;;;;;;5110595;28;20047;-73
2022/01/07 11:24:42;;;;;;;20.67;6.38;;;6.00;87.80;;;;;;5098143;28;20442;-74
2022/01/07 11:27:13;;;;;;;13.38;5.68;;;6.10;87.70;;;;;;5101389;28;20101;-74
2022/01/07 11:29:46;;;;;;;17.65;6.20;;;6.10;87.70;;;;;;5104510;28;20051;-75
2022/01/07 11:32:26;;;;;;;12.15;5.78;;;6.00;87.30;;;;;;5102013;28;20047;-74
2022/01/07 11:34:57;;;;;;;15.40;5.53;;;6.10;87.60;;;;;;5110267;28;20489;-74
2022/01/07 11:37:37;;;;;;;13.00;5.57;;;6.00;87.70;;;;;;5092462;27;20047;-74
2022/01/07 11:40:04;;;;;;;16.75;5.05;;;6.00;87.80;;;;;;5113776;27;20051;-74
2022/01/07 11:42:41;;;;;;;15.50;4.72;;;6.00;88.10;;;;;;5130209;27;20150;-74
2022/01/07 11:45:41;;;;;;;22.00;8.63;;;6.10;88.10;;;;;;5109949;27;20404;-63
2022/01/07 11:48:13;;;;;;;11.77;4.00;;;6.20;87.50;;;;;;5065361;27;20423;-72
2022/01/07 11:51:10;;;;;;;17.20;5.47;;;6.30;87.60;;;;;;5114135;27;20446;-72
2022/01/07 11:53:35;;;;;;;12.73;3.08;;;6.30;87.30;;;;;;5104111;28;20048;-71
2022/01/07 11:56:03;;;;;;;11.77;2.50;;;6.30;86.80;;;;;;5112000;27;20138;-71
2022/01/07 11:58:39;;;;;;;8.25;2.22;;;6.10;84.50;;;;;;5096037;27;20130;-72
2022/01/07 12:01:05;;;;;;;11.07;2.65;;;6.00;84.40;;;;;;5110019;27;20067;-71
2022/01/07 12:03:43;;;;;;;7.32;4.13;;;6.00;85.10;;;;;;5108699;27;20066;-71
2022/01/07 12:06:24;;;;;;;11.93;2.47;;;5.90;84.90;;;;;;5112593;27;20062;-71
2022/01/07 12:09:09;;;;;;;10.77;2.60;;;5.90;84.50;;;;;;5096762;27;20051;-71
2022/01/07 12:11:40;;;;;;;9.23;1.90;;;5.90;84.60;;;;;;5096638;27;20035;-71
2022/01/07 12:14:11;;;;;;;8.70;2.83;;;5.80;83.80;;;;;;5114022;27;20048;-71
2022/01/07 12:16:37;;;;;;;11.32;2.05;;;5.90;84.10;;;;;;5132443;27;20047;-71
2022/01/07 12:19:18;;;;;;;12.52;1.85;;;5.80;84.00;;;;;;5132265;27;20047;-71
2022/01/07 12:22:06;;;;;;;8.43;2.42;;;5.90;84.50;;;;;;5113181;27;20047;-71
2022/01/07 12:24:32;;;;;;;13.18;2.53;;;5.90;84.30;;;;;;5113864;27;20043;-71
2022/01/07 12:27:06;;;;;;;13.95;2.70;;;5.90;82.90;;;;;;5132309;27;20100;-72
2022/01/07 12:29:34;;;;;;;6.82;1.35;;;5.90;83.10;;;;;;5113677;27;20051;-71
2022/01/07 12:32:02;;;;;;;7.70;1.42;;;5.90;83.40;;;;;;5131771;27;20487;-71
2022/01/07 12:34:32;;;;;;;9.77;2.85;;;5.90;82.90;;;;;;5131537;27;20047;-71
2022/01/07 12:37:02;;;;;;;10.05;2.00;;;5.90;83.60;;;;;;5131493;27;20082;-71
2022/01/07 12:39:31;;;;;;;11.07;2.17;;;5.80;83.80;;;;;;5131482;27;20055;-71
2022/01/07 12:41:57;;;;;;;8.07;2.03;;;5.80;84.00;;;;;;5113553;27;20051;-71
2022/01/07 12:44:24;;;;;;;8.80;1.98;;;5.80;84.20;;;;;;5131866;27;20039;-71
2022/01/07 12:46:55;;;;;;;13.52;3.28;;;5.80;84.20;;;;;;5131043;27;20515;-71
2022/01/07 12:49:42;;;;;;;9.95;2.25;;;5.90;84.40;;;;;;5130605;27;20039;-71
2022/01/07 12:52:21;;;;;;;11.30;1.80;;;6.00;84.10;;;;;;5112438;27;20111;-68
2022/01/07 12:54:52;;;;;;;13.88;3.45;;;6.00;84.50;;;;;;5131504;27;20483;-68
2022/01/07 12:57:25;;;;;;;14.47;2.20;;;6.00;84.60;;;;;;5112016;27;20057;-69
2022/01/07 13:00:06;;;;;;;7.45;1.80;;;6.10;84.50;;;;;;5107361;28;20045;-68